sensor_id;sensor_type;location;lat;lon;timestamp;pressure;altitude;pressure_sealevel;temperature;humidity
62928;BME280;51070;52.236;-0.892;2023-11-18T00:01:16;100986.33;;;7.48;100.00
62928;BME280;51070;52.236;-0.892;2023-11-18T00:03:42;100984.05;;;7.47;100.00
62928;BME280;51070;52.236;-0.892;2023-11-18T00:06:07;100979.88;;;7.46;100.00
62928;BME280;51070;52.236;-0.892;2023-11-18T00:08:33;100981.06;;;7.46;100.00
62928;BME280;51070;52.236;-0.892;2023-11-18T00:10:58;100981.48;;;7.44;100.00
62928;BME280;51070;52.236;-0.892;2023-11-18T00:13:23;100967.04;;;7.44;100.00
62928;BME280;51070;52.236;-0.892;2023-11-18T00:15:51;100962.70;;;7.43;100.00
62928;BME280;51070;52.236;-0.892;2023-11-18T00:18:19;100956.79;;;7.42;100.00
62928;BME280;51070;52.236;-0.892;2023-11-18T00:20:44;100949.52;;;7.41;100.00
62928;BME280;51070;52.236;-0.892;2023-11-18T00:23:10;100950.66;;;7.40;100.00
62928;BME280;51070;52.236;-0.892;2023-11-18T00:25:36;100950.80;;;7.39;100.00
62928;BME280;51070;52.236;-0.892;2023-11-18T00:28:04;100942.64;;;7.37;100.00
62928;BME280;51070;52.236;-0.892;2023-11-18T00:30:32;100939.13;;;7.36;100.00
62928;BME280;51070;52.236;-0.892;2023-11-18T00:32:58;100937.81;;;7.34;100.00
62928;BME280;51070;52.236;-0.892;2023-11-18T00:35:23;100939.62;;;7.32;100.00
62928;BME280;51070;52.236;-0.892;2023-11-18T00:37:48;100935.21;;;7.30;100.00
62928;BME280;51070;52.236;-0.892;2023-11-18T00:40:13;100928.96;;;7.28;100.00
62928;BME280;51070;52.236;-0.892;2023-11-18T00:42:39;100925.67;;;7.28;100.00
62928;BME280;51070;52.236;-0.892;2023-11-18T00:45:04;100915.29;;;7.26;100.00
62928;BME280;51070;52.236;-0.892;2023-11-18T00:47:30;100902.93;;;7.24;100.00
62928;BME280;51070;52.236;-0.892;2023-11-18T00:49:55;100891.21;;;7.23;100.00
62928;BME280;51070;52.236;-0.892;2023-11-18T00:52:22;100894.58;;;7.21;100.00
62928;BME280;51070;52.236;-0.892;2023-11-18T00:54:48;100884.02;;;7.20;100.00
62928;BME280;51070;52.236;-0.892;2023-11-18T00:57:13;100867.09;;;7.18;100.00
62928;BME280;51070;52.236;-0.892;2023-11-18T00:59:41;100858.07;;;7.16;100.00
62928;BME280;51070;52.236;-0.892;2023-11-18T01:02:06;100847.29;;;7.13;100.00
62928;BME280;51070;52.236;-0.892;2023-11-18T01:04:33;100839.48;;;7.11;100.00
62928;BME280;51070;52.236;-0.892;2023-11-18T01:06:59;100834.13;;;7.08;100.00
62928;BME280;51070;52.236;-0.892;2023-11-18T01:09:24;100832.98;;;7.05;100.00
62928;BME280;51070;52.236;-0.892;2023-11-18T01:11:50;100827.40;;;7.04;100.00
62928;BME280;51070;52.236;-0.892;2023-11-18T01:14:15;100823.54;;;7.02;100.00
62928;BME280;51070;52.236;-0.892;2023-11-18T01:16:42;100814.39;;;7.01;100.00
62928;BME280;51070;52.236;-0.892;2023-11-18T01:19:11;100813.02;;;7.01;100.00
62928;BME280;51070;52.236;-0.892;2023-11-18T01:21:36;100801.99;;;7.01;100.00
62928;BME280;51070;52.236;-0.892;2023-11-18T01:24:01;100804.02;;;7.00;100.00
62928;BME280;51070;52.236;-0.892;2023-11-18T01:26:27;100798.85;;;7.00;100.00
62928;BME280;51070;52.236;-0.892;2023-11-18T01:28:52;100796.63;;;7.00;100.00
62928;BME280;51070;52.236;-0.892;2023-11-18T01:31:17;100786.80;;;6.99;100.00
62928;BME280;51070;52.236;-0.892;2023-11-18T01:33:43;100781.30;;;6.99;100.00
62928;BME280;51070;52.236;-0.892;2023-11-18T01:36:10;100769.11;;;6.99;100.00
62928;BME280;51070;52.236;-0.892;2023-11-18T01:38:36;100757.23;;;6.99;100.00
62928;BME280;51070;52.236;-0.892;2023-11-18T01:41:03;100747.61;;;6.99;100.00
62928;BME280;51070;52.236;-0.892;2023-11-18T01:43:30;100749.33;;;6.99;100.00
62928;BME280;51070;52.236;-0.892;2023-11-18T01:45:57;100746.26;;;6.99;100.00
62928;BME280;51070;52.236;-0.892;2023-11-18T01:48:23;100728.86;;;6.98;100.00
62928;BME280;51070;52.236;-0.892;2023-11-18T01:50:52;100723.59;;;7.00;100.00
62928;BME280;51070;52.236;-0.892;2023-11-18T01:53:18;100725.91;;;7.01;100.00
62928;BME280;51070;52.236;-0.892;2023-11-18T01:55:44;100725.09;;;7.02;100.00
62928;BME280;51070;52.236;-0.892;2023-11-18T01:58:11;100721.68;;;7.03;100.00
62928;BME280;51070;52.236;-0.892;2023-11-18T02:00:39;100719.52;;;7.04;100.00
62928;BME280;51070;52.236;-0.892;2023-11-18T02:03:07;100721.61;;;7.05;100.00
62928;BME280;51070;52.236;-0.892;2023-11-18T02:05:34;100722.32;;;7.05;100.00
62928;BME280;51070;52.236;-0.892;2023-11-18T02:08:00;100723.38;;;7.06;100.00
62928;BME280;51070;52.236;-0.892;2023-11-18T02:10:26;100722.04;;;7.06;100.00
62928;BME280;51070;52.236;-0.892;2023-11-18T02:12:57;100710.02;;;7.07;100.00
62928;BME280;51070;52.236;-0.892;2023-11-18T02:15:31;100697.51;;;7.08;100.00
62928;BME280;51070;52.236;-0.892;2023-11-18T02:17:59;100689.11;;;7.08;100.00
62928;BME280;51070;52.236;-0.892;2023-11-18T02:20:27;100692.27;;;7.10;100.00
62928;BME280;51070;52.236;-0.892;2023-11-18T02:22:53;100685.84;;;7.12;100.00
62928;BME280;51070;52.236;-0.892;2023-11-18T02:25:20;100669.70;;;7.12;100.00
62928;BME280;51070;52.236;-0.892;2023-11-18T02:27:48;100655.98;;;7.13;100.00
62928;BME280;51070;52.236;-0.892;2023-11-18T02:30:13;100649.84;;;7.14;100.00
62928;BME280;51070;52.236;-0.892;2023-11-18T02:33:02;100641.99;;;7.15;100.00
62928;BME280;51070;52.236;-0.892;2023-11-18T02:35:39;100636.91;;;7.17;100.00
62928;BME280;51070;52.236;-0.892;2023-11-18T02:38:08;100627.36;;;7.19;100.00
62928;BME280;51070;52.236;-0.892;2023-11-18T02:40:36;100621.31;;;7.22;100.00
62928;BME280;51070;52.236;-0.892;2023-11-18T02:43:02;100613.98;;;7.23;100.00
62928;BME280;51070;52.236;-0.892;2023-11-18T02:45:32;100610.30;;;7.26;100.00
62928;BME280;51070;52.236;-0.892;2023-11-18T02:47:59;100598.48;;;7.26;100.00
62928;BME280;51070;52.236;-0.892;2023-11-18T02:50:25;100610.40;;;7.28;100.00
62928;BME280;51070;52.236;-0.892;2023-11-18T02:52:52;100607.05;;;7.30;100.00
62928;BME280;51070;52.236;-0.892;2023-11-18T02:55:18;100592.16;;;7.31;100.00
62928;BME280;51070;52.236;-0.892;2023-11-18T02:57:43;100575.36;;;7.32;100.00
62928;BME280;51070;52.236;-0.892;2023-11-18T03:00:09;100566.98;;;7.33;100.00
62928;BME280;51070;52.236;-0.892;2023-11-18T03:02:42;100567.36;;;7.34;100.00
62928;BME280;51070;52.236;-0.892;2023-11-18T03:05:07;100565.70;;;7.36;100.00
62928;BME280;51070;52.236;-0.892;2023-11-18T03:07:37;100563.54;;;7.37;100.00
62928;BME280;51070;52.236;-0.892;2023-11-18T03:10:02;100564.15;;;7.39;100.00
62928;BME280;51070;52.236;-0.892;2023-11-18T03:12:28;100560.83;;;7.42;100.00
62928;BME280;51070;52.236;-0.892;2023-11-18T03:14:53;100550.60;;;7.44;100.00
62928;BME280;51070;52.236;-0.892;2023-11-18T03:17:19;100548.96;;;7.47;100.00
62928;BME280;51070;52.236;-0.892;2023-11-18T03:19:45;100547.52;;;7.48;100.00
62928;BME280;51070;52.236;-0.892;2023-11-18T03:22:10;100542.58;;;7.50;100.00
62928;BME280;51070;52.236;-0.892;2023-11-18T03:24:38;100531.31;;;7.52;100.00
62928;BME280;51070;52.236;-0.892;2023-11-18T03:27:03;100524.38;;;7.54;100.00
62928;BME280;51070;52.236;-0.892;2023-11-18T03:29:28;100510.36;;;7.57;100.00
62928;BME280;51070;52.236;-0.892;2023-11-18T03:31:54;100490.81;;;7.58;100.00
62928;BME280;51070;52.236;-0.892;2023-11-18T03:34:19;100468.84;;;7.59;100.00
62928;BME280;51070;52.236;-0.892;2023-11-18T03:36:45;100462.38;;;7.61;100.00
62928;BME280;51070;52.236;-0.892;2023-11-18T03:39:11;100462.25;;;7.62;100.00
62928;BME280;51070;52.236;-0.892;2023-11-18T03:41:36;100449.74;;;7.63;100.00
62928;BME280;51070;52.236;-0.892;2023-11-18T03:44:03;100442.59;;;7.65;100.00
62928;BME280;51070;52.236;-0.892;2023-11-18T03:46:28;100440.40;;;7.66;100.00
62928;BME280;51070;52.236;-0.892;2023-11-18T03:48:59;100437.85;;;7.67;100.00
62928;BME280;51070;52.236;-0.892;2023-11-18T03:51:24;100432.94;;;7.69;100.00
62928;BME280;51070;52.236;-0.892;2023-11-18T03:53:50;100424.41;;;7.71;100.00
62928;BME280;51070;52.236;-0.892;2023-11-18T03:56:18;100409.52;;;7.73;100.00
62928;BME280;51070;52.236;-0.892;2023-11-18T03:58:44;100400.50;;;7.75;100.00
62928;BME280;51070;52.236;-0.892;2023-11-18T04:01:09;100393.55;;;7.77;100.00
62928;BME280;51070;52.236;-0.892;2023-11-18T04:03:36;100382.42;;;7.79;100.00
62928;BME280;51070;52.236;-0.892;2023-11-18T04:06:01;100379.58;;;7.81;100.00
62928;BME280;51070;52.236;-0.892;2023-11-18T04:08:28;100372.26;;;7.83;100.00
62928;BME280;51070;52.236;-0.892;2023-11-18T04:10:54;100371.35;;;7.86;100.00
62928;BME280;51070;52.236;-0.892;2023-11-18T04:13:19;100366.13;;;7.90;100.00
62928;BME280;51070;52.236;-0.892;2023-11-18T04:15:44;100367.92;;;7.92;100.00
62928;BME280;51070;52.236;-0.892;2023-11-18T04:18:10;100358.05;;;7.95;100.00
62928;BME280;51070;52.236;-0.892;2023-11-18T04:20:36;100345.61;;;7.98;100.00
62928;BME280;51070;52.236;-0.892;2023-11-18T04:23:02;100330.91;;;8.00;100.00
62928;BME280;51070;52.236;-0.892;2023-11-18T04:25:27;100310.53;;;8.03;100.00
62928;BME280;51070;52.236;-0.892;2023-11-18T04:27:53;100311.48;;;8.06;100.00
62928;BME280;51070;52.236;-0.892;2023-11-18T04:30:18;100306.46;;;8.10;100.00
62928;BME280;51070;52.236;-0.892;2023-11-18T04:32:43;100306.54;;;8.12;100.00
62928;BME280;51070;52.236;-0.892;2023-11-18T04:35:08;100308.19;;;8.15;100.00
62928;BME280;51070;52.236;-0.892;2023-11-18T04:37:35;100305.23;;;8.19;100.00
62928;BME280;51070;52.236;-0.892;2023-11-18T04:40:03;100303.96;;;8.22;100.00
62928;BME280;51070;52.236;-0.892;2023-11-18T04:42:29;100292.39;;;8.26;100.00
62928;BME280;51070;52.236;-0.892;2023-11-18T04:44:55;100283.87;;;8.28;100.00
62928;BME280;51070;52.236;-0.892;2023-11-18T04:47:20;100281.61;;;8.32;100.00
62928;BME280;51070;52.236;-0.892;2023-11-18T04:49:45;100274.84;;;8.35;100.00
62928;BME280;51070;52.236;-0.892;2023-11-18T04:52:10;100273.27;;;8.39;100.00
62928;BME280;51070;52.236;-0.892;2023-11-18T04:54:36;100258.79;;;8.44;100.00
62928;BME280;51070;52.236;-0.892;2023-11-18T04:57:01;100255.24;;;8.46;100.00
62928;BME280;51070;52.236;-0.892;2023-11-18T04:59:27;100252.94;;;8.50;100.00
62928;BME280;51070;52.236;-0.892;2023-11-18T05:01:52;100249.63;;;8.54;100.00
62928;BME280;51070;52.236;-0.892;2023-11-18T05:04:18;100242.69;;;8.57;100.00
62928;BME280;51070;52.236;-0.892;2023-11-18T05:06:43;100246.05;;;8.60;100.00
62928;BME280;51070;52.236;-0.892;2023-11-18T05:09:09;100241.85;;;8.63;100.00
62928;BME280;51070;52.236;-0.892;2023-11-18T05:11:34;100225.61;;;8.67;100.00
62928;BME280;51070;52.236;-0.892;2023-11-18T05:14:01;100224.20;;;8.71;100.00
62928;BME280;51070;52.236;-0.892;2023-11-18T05:16:28;100213.45;;;8.74;100.00
62928;BME280;51070;52.236;-0.892;2023-11-18T05:18:54;100210.95;;;8.77;100.00
62928;BME280;51070;52.236;-0.892;2023-11-18T05:21:19;100208.14;;;8.81;100.00
62928;BME280;51070;52.236;-0.892;2023-11-18T05:23:44;100203.78;;;8.85;100.00
62928;BME280;51070;52.236;-0.892;2023-11-18T05:26:10;100207.16;;;8.88;100.00
62928;BME280;51070;52.236;-0.892;2023-11-18T05:28:35;100206.40;;;8.92;100.00
62928;BME280;51070;52.236;-0.892;2023-11-18T05:31:01;100202.90;;;8.96;100.00
62928;BME280;51070;52.236;-0.892;2023-11-18T05:33:27;100203.07;;;9.01;100.00
62928;BME280;51070;52.236;-0.892;2023-11-18T05:35:53;100198.73;;;9.06;100.00
62928;BME280;51070;52.236;-0.892;2023-11-18T05:38:19;100190.93;;;9.10;100.00
62928;BME280;51070;52.236;-0.892;2023-11-18T05:40:49;100178.95;;;9.13;100.00
62928;BME280;51070;52.236;-0.892;2023-11-18T05:43:25;100169.89;;;9.16;100.00
62928;BME280;51070;52.236;-0.892;2023-11-18T05:45:53;100158.93;;;9.18;100.00
62928;BME280;51070;52.236;-0.892;2023-11-18T05:48:37;100151.93;;;9.20;100.00
62928;BME280;51070;52.236;-0.892;2023-11-18T05:51:02;100144.57;;;9.22;100.00
62928;BME280;51070;52.236;-0.892;2023-11-18T05:53:28;100137.54;;;9.23;100.00
62928;BME280;51070;52.236;-0.892;2023-11-18T05:55:54;100138.09;;;9.25;100.00
62928;BME280;51070;52.236;-0.892;2023-11-18T05:58:19;100126.42;;;9.27;100.00
62928;BME280;51070;52.236;-0.892;2023-11-18T06:00:46;100111.30;;;9.29;100.00
62928;BME280;51070;52.236;-0.892;2023-11-18T06:03:11;100112.39;;;9.31;100.00
62928;BME280;51070;52.236;-0.892;2023-11-18T06:05:36;100114.69;;;9.33;100.00
62928;BME280;51070;52.236;-0.892;2023-11-18T06:08:02;100109.91;;;9.35;100.00
62928;BME280;51070;52.236;-0.892;2023-11-18T06:10:27;100100.67;;;9.37;100.00
62928;BME280;51070;52.236;-0.892;2023-11-18T06:12:53;100093.83;;;9.39;100.00
62928;BME280;51070;52.236;-0.892;2023-11-18T06:15:19;100087.65;;;9.41;100.00
62928;BME280;51070;52.236;-0.892;2023-11-18T06:17:46;100078.77;;;9.43;100.00
62928;BME280;51070;52.236;-0.892;2023-11-18T06:20:11;100073.48;;;9.46;100.00
62928;BME280;51070;52.236;-0.892;2023-11-18T06:22:39;100068.90;;;9.49;100.00
62928;BME280;51070;52.236;-0.892;2023-11-18T06:25:05;100074.11;;;9.50;100.00
62928;BME280;51070;52.236;-0.892;2023-11-18T06:27:32;100063.64;;;9.52;100.00
62928;BME280;51070;52.236;-0.892;2023-11-18T06:29:58;100061.45;;;9.54;100.00
62928;BME280;51070;52.236;-0.892;2023-11-18T06:32:23;100051.13;;;9.55;100.00
62928;BME280;51070;52.236;-0.892;2023-11-18T06:34:51;100041.69;;;9.57;100.00
62928;BME280;51070;52.236;-0.892;2023-11-18T06:37:16;100033.29;;;9.59;100.00
62928;BME280;51070;52.236;-0.892;2023-11-18T06:39:42;100033.16;;;9.61;100.00
62928;BME280;51070;52.236;-0.892;2023-11-18T06:42:11;100032.36;;;9.63;100.00
62928;BME280;51070;52.236;-0.892;2023-11-18T06:44:37;100030.35;;;9.65;100.00
62928;BME280;51070;52.236;-0.892;2023-11-18T06:47:02;100031.05;;;9.66;100.00
62928;BME280;51070;52.236;-0.892;2023-11-18T06:49:30;100028.71;;;9.69;100.00
62928;BME280;51070;52.236;-0.892;2023-11-18T06:51:56;100021.19;;;9.72;100.00
62928;BME280;51070;52.236;-0.892;2023-11-18T06:54:22;100010.70;;;9.74;100.00
62928;BME280;51070;52.236;-0.892;2023-11-18T06:56:49;100015.62;;;9.77;100.00
62928;BME280;51070;52.236;-0.892;2023-11-18T06:59:16;100017.21;;;9.79;100.00
62928;BME280;51070;52.236;-0.892;2023-11-18T07:01:41;100010.90;;;9.83;100.00
62928;BME280;51070;52.236;-0.892;2023-11-18T07:04:10;100009.25;;;9.85;100.00
62928;BME280;51070;52.236;-0.892;2023-11-18T07:06:35;100017.60;;;9.88;100.00
62928;BME280;51070;52.236;-0.892;2023-11-18T07:09:03;100016.63;;;9.90;100.00
62928;BME280;51070;52.236;-0.892;2023-11-18T07:11:33;100018.44;;;9.94;100.00
62928;BME280;51070;52.236;-0.892;2023-11-18T07:13:59;100018.67;;;9.97;100.00
62928;BME280;51070;52.236;-0.892;2023-11-18T07:16:24;100019.25;;;10.00;100.00
62928;BME280;51070;52.236;-0.892;2023-11-18T07:18:50;100020.20;;;10.03;100.00
62928;BME280;51070;52.236;-0.892;2023-11-18T07:21:16;100009.38;;;10.06;100.00
62928;BME280;51070;52.236;-0.892;2023-11-18T07:23:42;100010.48;;;10.08;100.00
62928;BME280;51070;52.236;-0.892;2023-11-18T07:26:08;99998.64;;;10.12;100.00
62928;BME280;51070;52.236;-0.892;2023-11-18T07:28:35;99990.41;;;10.14;100.00
62928;BME280;51070;52.236;-0.892;2023-11-18T07:31:01;99991.55;;;10.17;100.00
62928;BME280;51070;52.236;-0.892;2023-11-18T07:33:30;100005.61;;;10.20;100.00
62928;BME280;51070;52.236;-0.892;2023-11-18T07:35:56;100012.73;;;10.22;100.00
62928;BME280;51070;52.236;-0.892;2023-11-18T07:38:21;99999.33;;;10.25;100.00
62928;BME280;51070;52.236;-0.892;2023-11-18T07:40:46;99981.24;;;10.28;100.00
62928;BME280;51070;52.236;-0.892;2023-11-18T07:43:12;99980.64;;;10.32;100.00
62928;BME280;51070;52.236;-0.892;2023-11-18T07:45:38;99980.39;;;10.35;100.00
62928;BME280;51070;52.236;-0.892;2023-11-18T07:48:07;99983.73;;;10.39;100.00
62928;BME280;51070;52.236;-0.892;2023-11-18T07:50:34;99994.02;;;10.44;100.00
62928;BME280;51070;52.236;-0.892;2023-11-18T07:52:59;99992.39;;;10.48;100.00
62928;BME280;51070;52.236;-0.892;2023-11-18T07:55:24;99990.04;;;10.51;100.00
62928;BME280;51070;52.236;-0.892;2023-11-18T07:57:49;99982.80;;;10.53;100.00
62928;BME280;51070;52.236;-0.892;2023-11-18T08:00:15;99978.26;;;10.58;100.00
62928;BME280;51070;52.236;-0.892;2023-11-18T08:02:40;99979.89;;;10.62;100.00
62928;BME280;51070;52.236;-0.892;2023-11-18T08:05:06;99979.45;;;10.66;100.00
62928;BME280;51070;52.236;-0.892;2023-11-18T08:07:40;99979.88;;;10.70;100.00
62928;BME280;51070;52.236;-0.892;2023-11-18T08:10:06;99966.29;;;10.73;100.00
62928;BME280;51070;52.236;-0.892;2023-11-18T08:12:32;99957.89;;;10.77;100.00
62928;BME280;51070;52.236;-0.892;2023-11-18T08:14:57;99954.33;;;10.80;100.00
62928;BME280;51070;52.236;-0.892;2023-11-18T08:17:24;99951.81;;;10.84;100.00
62928;BME280;51070;52.236;-0.892;2023-11-18T08:19:50;99946.50;;;10.86;100.00
62928;BME280;51070;52.236;-0.892;2023-11-18T08:22:16;99943.45;;;10.90;100.00
62928;BME280;51070;52.236;-0.892;2023-11-18T08:24:44;99942.64;;;10.93;100.00
62928;BME280;51070;52.236;-0.892;2023-11-18T08:27:09;99948.58;;;10.97;100.00
62928;BME280;51070;52.236;-0.892;2023-11-18T08:29:34;99945.21;;;11.02;100.00
62928;BME280;51070;52.236;-0.892;2023-11-18T08:32:00;99941.84;;;11.06;100.00
62928;BME280;51070;52.236;-0.892;2023-11-18T08:34:26;99943.48;;;11.11;100.00
62928;BME280;51070;52.236;-0.892;2023-11-18T08:36:52;99943.90;;;11.15;100.00
62928;BME280;51070;52.236;-0.892;2023-11-18T08:39:17;99931.50;;;11.18;100.00
62928;BME280;51070;52.236;-0.892;2023-11-18T08:41:45;99936.39;;;11.21;100.00
62928;BME280;51070;52.236;-0.892;2023-11-18T08:44:11;99935.60;;;11.25;100.00
62928;BME280;51070;52.236;-0.892;2023-11-18T08:46:38;99931.48;;;11.27;100.00
62928;BME280;51070;52.236;-0.892;2023-11-18T08:49:04;99930.87;;;11.31;100.00
62928;BME280;51070;52.236;-0.892;2023-11-18T08:51:36;99933.38;;;11.37;100.00
62928;BME280;51070;52.236;-0.892;2023-11-18T08:54:02;99937.77;;;11.41;100.00
62928;BME280;51070;52.236;-0.892;2023-11-18T08:56:42;99934.75;;;11.47;100.00
62928;BME280;51070;52.236;-0.892;2023-11-18T08:59:09;99933.08;;;11.51;100.00
62928;BME280;51070;52.236;-0.892;2023-11-18T09:01:34;99916.54;;;11.55;100.00
62928;BME280;51070;52.236;-0.892;2023-11-18T09:03:59;99922.16;;;11.61;100.00
62928;BME280;51070;52.236;-0.892;2023-11-18T09:06:26;99911.38;;;11.67;100.00
62928;BME280;51070;52.236;-0.892;2023-11-18T09:08:53;99913.22;;;11.75;100.00
62928;BME280;51070;52.236;-0.892;2023-11-18T09:11:19;99919.20;;;11.80;100.00
62928;BME280;51070;52.236;-0.892;2023-11-18T09:13:47;99910.05;;;11.84;100.00
62928;BME280;51070;52.236;-0.892;2023-11-18T09:16:14;99904.60;;;11.89;100.00
62928;BME280;51070;52.236;-0.892;2023-11-18T09:18:41;99884.77;;;11.94;100.00
62928;BME280;51070;52.236;-0.892;2023-11-18T09:21:08;99881.88;;;11.98;100.00
62928;BME280;51070;52.236;-0.892;2023-11-18T09:23:39;99880.02;;;12.01;100.00
62928;BME280;51070;52.236;-0.892;2023-11-18T09:26:08;99882.12;;;12.04;100.00
62928;BME280;51070;52.236;-0.892;2023-11-18T09:28:35;99874.73;;;12.09;100.00
62928;BME280;51070;52.236;-0.892;2023-11-18T09:31:01;99889.86;;;12.13;100.00
62928;BME280;51070;52.236;-0.892;2023-11-18T09:33:31;99888.55;;;12.18;100.00
62928;BME280;51070;52.236;-0.892;2023-11-18T09:35:59;99879.78;;;12.24;100.00
62928;BME280;51070;52.236;-0.892;2023-11-18T09:38:26;99865.84;;;12.31;100.00
62928;BME280;51070;52.236;-0.892;2023-11-18T09:40:53;99861.58;;;12.37;100.00
62928;BME280;51070;52.236;-0.892;2023-11-18T09:43:18;99867.18;;;12.44;100.00
62928;BME280;51070;52.236;-0.892;2023-11-18T09:45:45;99871.95;;;12.52;100.00
62928;BME280;51070;52.236;-0.892;2023-11-18T09:48:13;99882.10;;;12.60;100.00
62928;BME280;51070;52.236;-0.892;2023-11-18T09:50:43;99888.58;;;12.67;100.00
62928;BME280;51070;52.236;-0.892;2023-11-18T09:53:12;99895.22;;;12.72;100.00
62928;BME280;51070;52.236;-0.892;2023-11-18T09:58:20;99892.30;;;12.76;100.00
62928;BME280;51070;52.236;-0.892;2023-11-18T10:00:49;99879.01;;;12.80;100.00
62928;BME280;51070;52.236;-0.892;2023-11-18T10:03:16;99876.58;;;12.82;100.00
62928;BME280;51070;52.236;-0.892;2023-11-18T10:05:41;99886.86;;;12.87;100.00
62928;BME280;51070;52.236;-0.892;2023-11-18T10:08:09;99894.36;;;12.89;100.00
62928;BME280;51070;52.236;-0.892;2023-11-18T10:10:35;99894.89;;;12.92;100.00
62928;BME280;51070;52.236;-0.892;2023-11-18T10:13:01;99890.06;;;12.94;100.00
62928;BME280;51070;52.236;-0.892;2023-11-18T10:15:29;99883.15;;;12.97;100.00
62928;BME280;51070;52.236;-0.892;2023-11-18T10:17:56;99884.58;;;13.01;100.00
62928;BME280;51070;52.236;-0.892;2023-11-18T10:20:58;99884.42;;;13.03;100.00
62928;BME280;51070;52.236;-0.892;2023-11-18T10:23:22;99886.20;;;13.07;100.00
62928;BME280;51070;52.236;-0.892;2023-11-18T10:25:49;99892.29;;;13.09;100.00
62928;BME280;51070;52.236;-0.892;2023-11-18T10:28:21;99887.63;;;13.11;100.00
62928;BME280;51070;52.236;-0.892;2023-11-18T10:30:47;99885.41;;;13.14;100.00
62928;BME280;51070;52.236;-0.892;2023-11-18T10:33:16;99887.70;;;13.15;100.00
62928;BME280;51070;52.236;-0.892;2023-11-18T10:35:48;99880.42;;;13.18;100.00
62928;BME280;51070;52.236;-0.892;2023-11-18T10:38:16;99878.89;;;13.21;100.00
62928;BME280;51070;52.236;-0.892;2023-11-18T10:40:42;99886.91;;;13.25;100.00
62928;BME280;51070;52.236;-0.892;2023-11-18T10:43:09;99891.45;;;13.30;100.00
62928;BME280;51070;52.236;-0.892;2023-11-18T10:45:35;99893.55;;;13.32;100.00
62928;BME280;51070;52.236;-0.892;2023-11-18T10:48:07;99894.77;;;13.35;100.00
62928;BME280;51070;52.236;-0.892;2023-11-18T10:50:33;99902.45;;;13.37;100.00
62928;BME280;51070;52.236;-0.892;2023-11-18T10:53:01;99898.63;;;13.39;100.00
62928;BME280;51070;52.236;-0.892;2023-11-18T10:55:35;99881.12;;;13.41;100.00
62928;BME280;51070;52.236;-0.892;2023-11-18T10:58:01;99869.86;;;13.43;100.00
62928;BME280;51070;52.236;-0.892;2023-11-18T11:00:26;99857.23;;;13.48;100.00
62928;BME280;51070;52.236;-0.892;2023-11-18T11:02:58;99854.49;;;13.55;100.00
62928;BME280;51070;52.236;-0.892;2023-11-18T11:05:30;99851.42;;;13.63;100.00
62928;BME280;51070;52.236;-0.892;2023-11-18T11:08:03;99846.95;;;13.71;100.00
62928;BME280;51070;52.236;-0.892;2023-11-18T11:10:30;99841.80;;;13.79;100.00
62928;BME280;51070;52.236;-0.892;2023-11-18T11:12:56;99845.83;;;13.88;100.00
62928;BME280;51070;52.236;-0.892;2023-11-18T11:15:29;99835.80;;;14.00;100.00
62928;BME280;51070;52.236;-0.892;2023-11-18T11:17:58;99848.35;;;14.07;100.00
62928;BME280;51070;52.236;-0.892;2023-11-18T11:20:34;99843.34;;;14.14;100.00
62928;BME280;51070;52.236;-0.892;2023-11-18T11:26:06;99832.92;;;14.21;100.00
62928;BME280;51070;52.236;-0.892;2023-11-18T11:28:39;99831.90;;;14.25;100.00
62928;BME280;51070;52.236;-0.892;2023-11-18T11:31:12;99832.07;;;14.26;100.00
62928;BME280;51070;52.236;-0.892;2023-11-18T11:33:46;99835.73;;;14.26;100.00
62928;BME280;51070;52.236;-0.892;2023-11-18T11:36:17;99833.12;;;14.27;100.00
62928;BME280;51070;52.236;-0.892;2023-11-18T11:38:48;99834.17;;;14.27;100.00
62928;BME280;51070;52.236;-0.892;2023-11-18T11:41:16;99840.25;;;14.28;100.00
62928;BME280;51070;52.236;-0.892;2023-11-18T11:43:51;99838.17;;;14.28;100.00
62928;BME280;51070;52.236;-0.892;2023-11-18T11:46:20;99848.95;;;14.28;100.00
62928;BME280;51070;52.236;-0.892;2023-11-18T11:48:49;99839.39;;;14.29;100.00
62928;BME280;51070;52.236;-0.892;2023-11-18T11:53:55;99830.52;;;14.32;100.00
62928;BME280;51070;52.236;-0.892;2023-11-18T11:59:12;99818.72;;;14.34;100.00
62928;BME280;51070;52.236;-0.892;2023-11-18T12:01:38;99824.65;;;14.37;100.00
62928;BME280;51070;52.236;-0.892;2023-11-18T12:04:24;99817.02;;;14.37;100.00
62928;BME280;51070;52.236;-0.892;2023-11-18T12:06:53;99818.41;;;14.38;100.00
62928;BME280;51070;52.236;-0.892;2023-11-18T12:09:21;99819.30;;;14.40;100.00
62928;BME280;51070;52.236;-0.892;2023-11-18T12:11:47;99827.98;;;14.43;100.00
62928;BME280;51070;52.236;-0.892;2023-11-18T12:14:16;99824.34;;;14.44;100.00
62928;BME280;51070;52.236;-0.892;2023-11-18T12:17:00;99810.62;;;14.46;100.00
62928;BME280;51070;52.236;-0.892;2023-11-18T12:19:32;99817.91;;;14.48;100.00
62928;BME280;51070;52.236;-0.892;2023-11-18T12:22:02;99821.92;;;14.52;100.00
62928;BME280;51070;52.236;-0.892;2023-11-18T12:24:37;99827.50;;;14.60;100.00
62928;BME280;51070;52.236;-0.892;2023-11-18T12:27:04;99829.77;;;14.68;100.00
62928;BME280;51070;52.236;-0.892;2023-11-18T12:29:40;99836.05;;;14.75;100.00
62928;BME280;51070;52.236;-0.892;2023-11-18T12:32:06;99826.66;;;14.83;100.00
62928;BME280;51070;52.236;-0.892;2023-11-18T12:34:53;99819.35;;;14.91;100.00
62928;BME280;51070;52.236;-0.892;2023-11-18T12:37:47;99820.23;;;14.98;100.00
62928;BME280;51070;52.236;-0.892;2023-11-18T12:40:23;99820.58;;;15.07;100.00
62928;BME280;51070;52.236;-0.892;2023-11-18T12:43:00;99811.89;;;15.10;100.00
62928;BME280;51070;52.236;-0.892;2023-11-18T12:45:37;99814.83;;;15.13;100.00
62928;BME280;51070;52.236;-0.892;2023-11-18T12:48:08;99815.19;;;15.16;100.00
62928;BME280;51070;52.236;-0.892;2023-11-18T12:50:40;99811.69;;;15.18;100.00
62928;BME280;51070;52.236;-0.892;2023-11-18T12:53:06;99813.80;;;15.16;100.00